createdAt,value
2019-04-01T00:00:50.352Z,55.14
2019-04-01T00:03:21.592Z,55.04
2019-04-01T00:05:52.921Z,54.98
2019-04-01T00:08:24.140Z,55.03
2019-04-01T00:10:55.536Z,54.97
2019-04-01T00:13:26.854Z,55.12
2019-04-01T00:15:58.054Z,55.78
2019-04-01T00:18:29.251Z,55.86
2019-04-01T00:21:00.432Z,55.74
2019-04-01T00:23:32.938Z,55.70
2019-04-01T00:26:04.246Z,55.44
2019-04-01T00:28:35.554Z,55.55
2019-04-01T00:31:06.738Z,56.41
2019-04-01T00:33:38.034Z,56.61
2019-04-01T00:36:09.498Z,56.48
2019-04-01T00:38:40.700Z,56.22
2019-04-01T00:41:11.910Z,55.83
2019-04-01T00:43:53.170Z,55.98
2019-04-01T00:46:25.534Z,55.88
2019-04-01T00:48:56.780Z,55.63
2019-04-01T00:51:28.033Z,55.62
2019-04-01T00:53:59.267Z,55.74
2019-04-01T00:56:30.847Z,55.65
2019-04-01T00:59:02.037Z,55.90
2019-04-01T01:01:33.233Z,55.66
2019-04-01T01:04:04.611Z,55.31
2019-04-01T01:06:35.798Z,55.17
2019-04-01T01:09:07.318Z,55.08
2019-04-01T01:11:38.561Z,54.99
2019-04-01T01:14:09.801Z,54.92
2019-04-01T01:16:41.062Z,54.85
2019-04-01T01:19:12.306Z,54.86
2019-04-01T01:21:44.862Z,55.03
2019-04-01T01:24:16.187Z,54.80
2019-04-01T01:26:47.452Z,55.11
2019-04-01T01:29:18.665Z,56.29
2019-04-01T01:31:49.894Z,56.09
2019-04-01T01:34:21.117Z,56.05
2019-04-01T01:36:52.360Z,55.57
2019-04-01T01:39:23.596Z,55.60
2019-04-01T01:41:54.794Z,55.54
2019-04-01T01:44:26.026Z,55.34
2019-04-01T01:46:57.241Z,55.15
2019-04-01T01:49:28.540Z,54.98
2019-04-01T01:52:00.729Z,54.84
2019-04-01T01:54:31.966Z,54.60
2019-04-01T01:57:03.175Z,54.58
2019-04-01T01:59:34.848Z,55.07
2019-04-01T02:02:06.728Z,55.67
2019-04-01T02:04:38.050Z,56.09
2019-04-01T02:07:09.313Z,56.61
2019-04-01T02:09:40.519Z,56.98
2019-04-01T02:12:11.727Z,57.21
2019-04-01T02:14:42.910Z,57.50
2019-04-01T02:17:14.238Z,57.72
2019-04-01T02:19:45.429Z,58.10
2019-04-01T02:22:16.622Z,57.79
2019-04-01T02:24:48.284Z,57.99
2019-04-01T02:27:19.494Z,58.07
2019-04-01T02:29:50.720Z,58.18
2019-04-01T02:32:21.960Z,58.26
2019-04-01T02:34:53.155Z,58.07
2019-04-01T02:37:24.428Z,57.94
2019-04-01T02:39:55.601Z,58.01
2019-04-01T02:42:26.847Z,58.20
2019-04-01T02:44:59.018Z,58.47
2019-04-01T02:47:30.775Z,58.90
2019-04-01T02:50:02.013Z,58.90
2019-04-01T02:52:33.185Z,58.80
2019-04-01T02:55:06.941Z,58.75
2019-04-01T02:57:37.336Z,58.72
2019-04-01T03:00:08.530Z,58.71
2019-04-01T03:02:39.788Z,58.64
2019-04-01T03:05:10.972Z,58.66
2019-04-01T03:07:42.187Z,58.87
2019-04-01T03:10:13.508Z,58.67
2019-04-01T03:12:44.749Z,58.69
2019-04-01T03:15:15.941Z,58.68
2019-04-01T03:17:47.192Z,58.58
2019-04-01T03:20:18.389Z,58.50
2019-04-01T03:22:49.602Z,59.04
2019-04-01T03:25:20.800Z,59.28
2019-04-01T03:27:52.585Z,59.60
2019-04-01T03:30:24.404Z,60.44
2019-04-01T03:32:58.348Z,60.16
2019-04-01T03:35:29.545Z,60.22
2019-04-01T03:38:00.801Z,60.84
2019-04-01T03:40:32.397Z,60.70
2019-04-01T03:43:03.681Z,60.87
2019-04-01T03:45:34.918Z,60.96
2019-04-01T03:48:06.122Z,60.95
2019-04-01T03:50:37.343Z,61.26
2019-04-01T03:53:08.520Z,61.15
2019-04-01T03:55:39.855Z,61.38
2019-04-01T03:58:11.078Z,62.20
2019-04-01T04:00:42.307Z,62.03
2019-04-01T04:03:13.614Z,61.93
2019-04-01T04:05:45.189Z,62.18
2019-04-01T04:08:16.451Z,62.24
2019-04-01T04:10:47.680Z,62.25
2019-04-01T04:13:20.098Z,61.93
2019-04-01T04:15:51.321Z,61.50
2019-04-01T04:18:22.580Z,61.84
2019-04-01T04:20:53.832Z,61.96
2019-04-01T04:23:26.200Z,61.91
2019-04-01T04:25:58.998Z,62.21
2019-04-01T04:28:30.225Z,62.01
2019-04-01T04:31:01.670Z,61.87
2019-04-01T04:33:33.155Z,62.13
2019-04-01T04:36:04.346Z,62.07
2019-04-01T04:38:35.581Z,62.10
2019-04-01T04:41:06.826Z,62.05
2019-04-01T04:43:38.062Z,62.07
2019-04-01T04:46:09.299Z,62.08
2019-04-01T04:48:40.512Z,62.30
2019-04-01T04:51:11.866Z,62.25
2019-04-01T04:53:43.057Z,61.65
2019-04-01T04:56:14.249Z,61.36
2019-04-01T04:58:45.444Z,61.92
2019-04-01T05:01:16.723Z,61.71
2019-04-01T05:03:47.998Z,61.62
2019-04-01T05:06:19.214Z,61.64
2019-04-01T05:08:50.473Z,61.58
2019-04-01T05:11:21.817Z,61.46
2019-04-01T05:13:54.231Z,61.36
2019-04-01T05:16:25.421Z,61.21
2019-04-01T05:18:56.633Z,61.04
2019-04-01T05:21:27.924Z,60.89
2019-04-01T05:23:59.104Z,60.91
2019-04-01T05:26:30.305Z,60.98
2019-04-01T05:29:01.498Z,61.71
2019-04-01T05:31:32.861Z,61.39
2019-04-01T05:34:04.065Z,61.62
2019-04-01T05:36:35.241Z,62.92
2019-04-01T05:39:07.738Z,62.88
2019-04-01T05:41:38.925Z,62.83
2019-04-01T05:44:10.163Z,63.30
2019-04-01T05:46:41.371Z,63.07
2019-04-01T05:49:12.641Z,62.84
2019-04-01T05:51:43.839Z,62.69
2019-04-01T05:54:15.023Z,62.22
2019-04-01T05:56:46.618Z,62.70
2019-04-01T05:59:17.852Z,62.99
2019-04-01T06:01:49.666Z,63.01
2019-04-01T06:04:20.892Z,63.38
2019-04-01T06:06:52.866Z,63.65
2019-04-01T06:09:24.171Z,63.79
2019-04-01T06:11:55.701Z,63.91
2019-04-01T06:14:26.923Z,63.97
2019-04-01T06:16:58.153Z,63.75
2019-04-01T06:19:30.433Z,63.68
2019-04-01T06:22:01.680Z,64.03
2019-04-01T06:24:33.170Z,64.10
2019-04-01T06:27:04.374Z,64.05
2019-04-01T06:29:35.623Z,63.70
2019-04-01T06:32:06.827Z,63.44
2019-04-01T06:34:52.304Z,63.57
2019-04-01T06:37:12.465Z,63.37
2019-04-01T06:39:43.764Z,63.60
2019-04-01T06:42:14.959Z,63.54
2019-04-01T06:44:46.176Z,63.42
2019-04-01T06:47:17.373Z,63.03
2019-04-01T06:49:48.558Z,62.55
2019-04-01T06:52:20.459Z,62.40
2019-04-01T06:54:53.014Z,62.48
2019-04-01T06:57:24.206Z,62.20
2019-04-01T06:59:55.490Z,62.03
2019-04-01T07:02:27.282Z,61.50
2019-04-01T07:04:58.474Z,61.36
2019-04-01T07:07:29.677Z,61.23
2019-04-01T07:10:00.911Z,60.79
2019-04-01T07:12:32.102Z,60.43
2019-04-01T07:15:03.338Z,60.15
2019-04-01T07:17:35.713Z,60.05
2019-04-01T07:20:08.888Z,59.99
2019-04-01T07:22:39.815Z,59.63
2019-04-01T07:25:11.002Z,59.32
2019-04-01T07:27:42.208Z,58.96
2019-04-01T07:30:13.470Z,58.65
2019-04-01T07:32:44.686Z,58.46
2019-04-01T07:35:16.105Z,58.17
2019-04-01T07:37:47.298Z,57.83
2019-04-01T07:40:19.991Z,57.45
2019-04-01T07:42:51.214Z,55.88
2019-04-01T07:45:22.867Z,52.89
2019-04-01T07:47:54.091Z,50.96
2019-04-01T07:50:25.335Z,48.94
2019-04-01T07:52:56.645Z,47.87
2019-04-01T07:55:29.251Z,47.23
2019-04-01T07:58:01.068Z,45.52
2019-04-01T08:00:32.395Z,45.27
2019-04-01T08:03:03.671Z,43.72
2019-04-01T08:05:34.822Z,44.44
2019-04-01T08:08:06.379Z,44.81
2019-04-01T08:10:37.655Z,42.87
2019-04-01T08:13:08.893Z,42.71
2019-04-01T08:15:40.173Z,42.06
2019-04-01T08:18:11.404Z,40.99
2019-04-01T08:20:42.651Z,40.02
2019-04-01T08:23:13.902Z,39.25
2019-04-01T08:25:47.896Z,38.89
2019-04-01T08:28:18.429Z,38.10
2019-04-01T08:30:49.697Z,38.42
2019-04-01T08:33:20.916Z,38.46
2019-04-01T08:35:53.455Z,39.60
2019-04-01T08:38:24.656Z,40.54
2019-04-01T08:40:56.303Z,40.67
2019-04-01T08:43:27.559Z,41.01
2019-04-01T08:45:58.817Z,40.92
2019-04-01T08:48:30.005Z,40.75
2019-04-01T08:51:01.264Z,40.48
2019-04-01T08:53:32.509Z,40.05
2019-04-01T08:56:03.772Z,38.33
2019-04-01T08:58:35.009Z,36.43
2019-04-01T09:01:06.258Z,36.60
2019-04-01T09:03:37.449Z,35.27
2019-04-01T09:06:08.858Z,34.03
2019-04-01T09:08:40.242Z,34.73
2019-04-01T09:11:11.478Z,34.62
2019-04-01T09:13:43.681Z,33.34
2019-04-01T09:16:15.903Z,33.05
2019-04-01T09:18:47.151Z,33.62
2019-04-01T09:21:18.333Z,33.27
2019-04-01T09:23:52.122Z,34.43
2019-04-01T09:26:22.439Z,33.90
2019-04-01T09:28:53.674Z,33.08
2019-04-01T09:31:24.871Z,33.28
2019-04-01T09:33:56.106Z,32.45
2019-04-01T09:36:27.369Z,33.84
2019-04-01T09:38:58.598Z,35.61
2019-04-01T09:41:29.915Z,34.91
2019-04-01T09:44:01.153Z,34.10
2019-04-01T09:46:32.439Z,32.89
2019-04-01T09:49:03.691Z,32.54
2019-04-01T09:51:47.909Z,33.77
2019-04-01T09:54:07.820Z,32.67
2019-04-01T09:56:39.018Z,33.53
2019-04-01T09:59:10.261Z,32.60
2019-04-01T10:01:41.437Z,32.23
2019-04-01T10:04:12.761Z,33.40
2019-04-01T10:06:43.938Z,33.42
2019-04-01T10:09:15.635Z,34.27
2019-04-01T10:11:46.970Z,33.43
2019-04-01T10:14:18.149Z,33.35
2019-04-01T10:16:49.447Z,33.67
2019-04-01T10:19:20.813Z,33.80
2019-04-01T10:21:53.567Z,33.73
2019-04-01T10:24:24.791Z,33.65
2019-04-01T10:26:55.963Z,32.97
2019-04-01T10:29:27.252Z,33.19
2019-04-01T10:31:58.537Z,33.50
2019-04-01T10:34:29.833Z,32.89
2019-04-01T10:37:01.071Z,31.75
2019-04-01T10:39:33.660Z,31.80
2019-04-01T10:42:04.928Z,32.83
2019-04-01T10:44:36.170Z,30.75
2019-04-01T10:47:07.517Z,29.54
2019-04-01T10:49:38.879Z,29.95
2019-04-01T10:52:10.287Z,28.74
2019-04-01T10:54:41.551Z,29.04
2019-04-01T10:57:14.561Z,29.11
2019-04-01T10:59:46.628Z,28.18
2019-04-01T11:02:18.589Z,27.46
2019-04-01T11:04:49.879Z,28.53
2019-04-01T11:07:21.121Z,28.37
2019-04-01T11:09:52.442Z,28.50
2019-04-01T11:12:24.854Z,28.48
2019-04-01T11:14:56.350Z,29.38
2019-04-01T11:17:27.521Z,31.57
2019-04-01T11:19:58.709Z,31.00
2019-04-01T11:22:31.732Z,30.49
2019-04-01T11:25:03.303Z,31.07
2019-04-01T11:27:34.520Z,29.83
2019-04-01T11:30:07.793Z,32.30
2019-04-01T11:32:40.323Z,31.27
2019-04-01T11:35:12.014Z,31.40
2019-04-01T11:37:43.276Z,31.06
2019-04-01T11:40:14.466Z,30.92
2019-04-01T11:42:45.694Z,32.52
2019-04-01T11:45:17.119Z,32.00
2019-04-01T11:47:48.270Z,31.45
2019-04-01T11:50:19.565Z,31.00
2019-04-01T11:52:51.792Z,30.11
2019-04-01T11:55:23.035Z,29.58
2019-04-01T11:57:54.376Z,29.23
2019-04-01T12:00:26.380Z,28.29
2019-04-01T12:02:57.685Z,28.93
2019-04-01T12:05:28.901Z,29.24
2019-04-01T12:08:00.111Z,31.11
2019-04-01T12:10:31.322Z,30.94
2019-04-01T12:13:02.551Z,29.65
2019-04-01T12:15:34.397Z,30.14
2019-04-01T12:18:05.760Z,30.59
2019-04-01T12:20:38.177Z,31.86
2019-04-01T12:23:09.554Z,31.60
2019-04-01T12:25:41.104Z,33.13
2019-04-01T12:28:12.603Z,32.05
2019-04-01T12:30:44.877Z,32.86
2019-04-01T12:33:16.185Z,33.48
2019-04-01T12:35:47.379Z,34.83
2019-04-01T12:38:18.795Z,35.28
2019-04-01T12:40:50.016Z,35.79
2019-04-01T12:43:23.498Z,39.42
2019-04-01T12:45:54.478Z,41.28
2019-04-01T12:48:25.853Z,40.48
2019-04-01T12:50:57.149Z,40.06
2019-04-01T12:53:28.491Z,39.21
2019-04-01T12:55:59.701Z,38.54
2019-04-01T12:58:30.902Z,37.93
2019-04-01T13:01:02.136Z,38.59
2019-04-01T13:03:33.328Z,38.73
2019-04-01T13:06:04.563Z,39.05
2019-04-01T13:08:35.828Z,39.88
2019-04-01T13:11:07.422Z,40.55
2019-04-01T13:13:39.922Z,38.97
2019-04-01T13:16:11.187Z,39.33
2019-04-01T13:18:42.374Z,39.57
2019-04-01T13:21:13.606Z,39.10
2019-04-01T13:23:44.955Z,39.36
2019-04-01T13:26:16.177Z,39.34
2019-04-01T13:28:47.430Z,38.66
2019-04-01T13:31:18.645Z,38.29
2019-04-01T13:33:49.874Z,40.16
2019-04-01T13:36:21.548Z,41.37
2019-04-01T13:38:52.779Z,40.66
2019-04-01T13:41:25.250Z,39.68
2019-04-01T13:43:56.617Z,39.39
2019-04-01T13:46:28.297Z,39.60
2019-04-01T13:49:04.151Z,39.49
2019-04-01T13:51:32.722Z,38.81
2019-04-01T13:54:08.929Z,39.15
2019-04-01T13:56:37.556Z,39.46
2019-04-01T13:59:09.848Z,39.92
2019-04-01T14:01:41.728Z,39.94
2019-04-01T14:04:13.052Z,40.95
2019-04-01T14:06:44.857Z,40.91
2019-04-01T14:09:16.054Z,42.41
2019-04-01T14:11:48.319Z,42.26
2019-04-01T14:14:19.813Z,43.41
2019-04-01T14:16:51.266Z,43.39
2019-04-01T14:19:23.173Z,43.67
2019-04-01T14:21:54.635Z,44.16
2019-04-01T14:24:26.125Z,44.48
2019-04-01T14:26:57.562Z,45.86
2019-04-01T14:29:29.043Z,46.18
2019-04-01T14:32:01.023Z,46.55
2019-04-01T14:34:33.331Z,47.13
2019-04-01T14:37:04.994Z,46.11
2019-04-01T14:39:36.934Z,46.96
2019-04-01T14:42:08.735Z,46.98
2019-04-01T14:44:40.322Z,47.13
2019-04-01T14:47:11.532Z,47.31
2019-04-01T14:49:42.742Z,47.37
2019-04-01T14:52:14.017Z,47.89
2019-04-01T14:54:45.215Z,48.17
2019-04-01T14:57:16.409Z,48.28
2019-04-01T14:59:47.633Z,48.34
2019-04-01T15:02:18.901Z,48.60
2019-04-01T15:04:50.359Z,49.10
2019-04-01T15:07:21.571Z,48.56
2019-04-01T15:09:52.759Z,48.67
2019-04-01T15:12:24.256Z,48.74
2019-04-01T15:14:55.786Z,48.81
2019-04-01T15:17:27.012Z,49.51
2019-04-01T15:19:59.241Z,49.99
2019-04-01T15:22:30.833Z,50.66
2019-04-01T15:25:02.157Z,51.68
2019-04-01T15:27:34.929Z,51.91
2019-04-01T15:30:07.001Z,51.95
2019-04-01T15:32:38.313Z,51.88
2019-04-01T15:35:09.562Z,52.09
2019-04-01T15:37:40.806Z,52.10
2019-04-01T15:40:12.203Z,52.59
2019-04-01T15:42:43.525Z,51.94
2019-04-01T15:45:14.785Z,51.96
2019-04-01T15:47:45.982Z,52.06
2019-04-01T15:50:28.263Z,52.02
2019-04-01T15:52:50.227Z,52.22
2019-04-01T15:55:21.455Z,51.85
2019-04-01T15:57:52.665Z,52.07
2019-04-01T16:00:23.892Z,52.50
2019-04-01T16:02:55.068Z,53.09
2019-04-01T16:05:26.360Z,58.09
2019-04-01T16:07:57.560Z,57.39
2019-04-01T16:10:29.465Z,57.56
2019-04-01T16:13:01.587Z,59.16
2019-04-01T16:15:33.521Z,59.96
2019-04-01T16:18:05.066Z,60.17
2019-04-01T16:20:37.131Z,57.76
2019-04-01T16:23:08.760Z,57.94
2019-04-01T16:25:40.419Z,59.53
2019-04-01T16:28:11.788Z,61.27
2019-04-01T16:30:43.572Z,61.41
2019-04-01T16:33:14.755Z,61.94
2019-04-01T16:35:45.940Z,62.39
2019-04-01T16:38:17.120Z,61.38
2019-04-01T16:40:48.529Z,61.11
2019-04-01T16:43:19.723Z,61.64
2019-04-01T16:45:51.091Z,61.90
2019-04-01T16:48:22.387Z,62.29
2019-04-01T16:50:53.714Z,62.91
2019-04-01T16:53:25.194Z,61.87
2019-04-01T16:55:57.376Z,62.44
2019-04-01T16:58:28.808Z,61.97
2019-04-01T17:01:02.470Z,61.77
2019-04-01T17:03:32.931Z,63.41
2019-04-01T17:06:04.120Z,63.77
2019-04-01T17:08:35.354Z,64.20
2019-04-01T17:11:06.630Z,64.60
2019-04-01T17:13:37.833Z,64.45
2019-04-01T17:16:09.057Z,64.73
2019-04-01T17:18:40.258Z,64.71
2019-04-01T17:21:12.772Z,64.90
2019-04-01T17:23:43.955Z,65.59
2019-04-01T17:26:15.288Z,65.04
2019-04-01T17:28:46.485Z,64.65
2019-04-01T17:31:17.699Z,64.98
2019-04-01T17:33:48.965Z,65.27
2019-04-01T17:36:20.173Z,64.60
2019-04-01T17:38:51.407Z,65.38
2019-04-01T17:41:22.700Z,64.56
2019-04-01T17:43:53.912Z,65.51
2019-04-01T17:46:26.552Z,65.82
2019-04-01T17:48:58.576Z,65.81
2019-04-01T17:51:29.866Z,66.06
2019-04-01T17:54:03.383Z,64.87
2019-04-01T17:56:34.634Z,65.19
2019-04-01T17:59:05.829Z,64.63
2019-04-01T18:01:37.030Z,65.43
2019-04-01T18:04:08.898Z,64.98
2019-04-01T18:06:40.105Z,64.61
2019-04-01T18:09:11.329Z,64.82
2019-04-01T18:11:42.630Z,64.46
2019-04-01T18:14:13.829Z,64.59
2019-04-01T18:16:46.137Z,65.77
2019-04-01T18:19:17.708Z,64.38
2019-04-01T18:21:48.972Z,65.65
2019-04-01T18:24:20.200Z,65.55
2019-04-01T18:26:51.395Z,65.34
2019-04-01T18:29:22.605Z,65.57
2019-04-01T18:31:53.802Z,64.88
2019-04-01T18:34:25.003Z,65.23
2019-04-01T18:36:56.268Z,64.94
2019-04-01T18:39:29.959Z,65.12
2019-04-01T18:42:00.380Z,64.98
2019-04-01T18:44:31.914Z,65.03
2019-04-01T18:47:04.193Z,65.04
2019-04-01T18:49:35.524Z,65.11
2019-04-01T18:52:06.730Z,65.46
2019-04-01T18:54:37.968Z,65.84
2019-04-01T18:57:09.192Z,65.87
2019-04-01T18:59:40.411Z,66.21
2019-04-01T19:02:13.086Z,66.18
2019-04-01T19:04:44.791Z,66.12
2019-04-01T19:07:16.104Z,66.45
2019-04-01T19:09:47.309Z,66.22
2019-04-01T19:12:18.599Z,66.78
2019-04-01T19:14:49.806Z,66.75
2019-04-01T19:17:21.015Z,66.36
2019-04-01T19:19:52.229Z,66.13
2019-04-01T19:22:23.507Z,66.59
2019-04-01T19:24:54.734Z,66.45
2019-04-01T19:27:26.314Z,66.25
2019-04-01T19:29:57.537Z,65.87
2019-04-01T19:32:28.788Z,65.81
2019-04-01T19:35:00.042Z,65.95
2019-04-01T19:37:33.777Z,65.86
2019-04-01T19:40:04.685Z,65.85
2019-04-01T19:42:39.309Z,65.61
2019-04-01T19:45:11.961Z,65.47
2019-04-01T19:47:43.307Z,66.03
2019-04-01T19:50:18.215Z,67.14
2019-04-01T19:52:47.988Z,66.95
2019-04-01T19:55:19.237Z,67.52
2019-04-01T19:57:50.544Z,67.67
2019-04-01T20:00:28.076Z,68.11
2019-04-01T20:02:55.315Z,68.14
2019-04-01T20:05:27.837Z,68.26
2019-04-01T20:07:59.141Z,67.82
2019-04-01T20:10:30.412Z,67.92
2019-04-01T20:13:02.116Z,68.81
2019-04-01T20:15:33.385Z,67.75
2019-04-01T20:18:04.644Z,67.75
2019-04-01T20:20:35.923Z,67.55
2019-04-01T20:23:07.182Z,67.35
2019-04-01T20:25:38.462Z,67.33
2019-04-01T20:28:09.831Z,67.05
2019-04-01T20:30:42.691Z,66.63
2019-04-01T20:33:17.936Z,66.26
2019-04-01T20:35:47.139Z,66.14
2019-04-01T20:38:18.582Z,65.96
2019-04-01T20:40:49.850Z,65.83
2019-04-01T20:43:21.137Z,65.81
2019-04-01T20:45:52.625Z,65.65
2019-04-01T20:48:24.000Z,65.34
2019-04-01T20:50:56.253Z,65.29
2019-04-01T20:53:28.242Z,65.29
2019-04-01T20:55:59.529Z,65.31
2019-04-01T20:58:30.855Z,65.09
2019-04-01T21:01:02.094Z,64.63
2019-04-01T21:03:34.238Z,64.65
2019-04-01T21:06:05.694Z,65.53
2019-04-01T21:08:38.108Z,66.00
2019-04-01T21:11:11.016Z,66.12
2019-04-01T21:13:42.516Z,66.83
2019-04-01T21:16:14.052Z,67.36
2019-04-01T21:18:45.326Z,67.24
2019-04-01T21:21:17.319Z,67.40
2019-04-01T21:23:48.627Z,67.19
2019-04-01T21:26:19.867Z,66.77
2019-04-01T21:28:51.134Z,66.44
2019-04-01T21:31:22.654Z,67.16
2019-04-01T21:33:53.879Z,67.52
2019-04-01T21:36:25.196Z,67.80
2019-04-01T21:38:56.972Z,68.10
2019-04-01T21:41:28.284Z,67.85
2019-04-01T21:43:59.542Z,68.12
2019-04-01T21:46:32.900Z,67.94
2019-04-01T21:49:08.065Z,67.99
2019-04-01T21:51:39.332Z,67.86
2019-04-01T21:54:10.969Z,67.73
2019-04-01T21:56:42.789Z,67.43
2019-04-01T21:59:14.118Z,67.66
2019-04-01T22:01:46.282Z,67.54
2019-04-01T22:04:21.233Z,67.05
2019-04-01T22:06:52.498Z,66.96
2019-04-01T22:09:23.981Z,67.15
2019-04-01T22:11:55.282Z,67.03
2019-04-01T22:14:26.558Z,66.26
2019-04-01T22:16:57.797Z,66.63
2019-04-01T22:19:35.643Z,66.25
2019-04-01T22:22:17.202Z,66.06
2019-04-01T22:24:49.613Z,66.65
2019-04-01T22:27:20.881Z,67.78
2019-04-01T22:29:52.129Z,67.62
2019-04-01T22:32:23.321Z,67.11
2019-04-01T22:34:54.660Z,67.43
2019-04-01T22:37:27.471Z,67.08
2019-04-01T22:39:58.801Z,67.44
2019-04-01T22:42:30.070Z,67.34
2019-04-01T22:45:01.342Z,67.15
2019-04-01T22:47:32.574Z,67.28
2019-04-01T22:50:03.805Z,67.38
2019-04-01T22:55:07.725Z,68.61
2019-04-01T22:57:38.976Z,69.00
2019-04-01T23:00:10.177Z,69.08
2019-04-01T23:02:43.084Z,68.86
2019-04-01T23:05:15.471Z,68.69
2019-04-01T23:07:46.702Z,68.85
2019-04-01T23:10:17.906Z,69.16
2019-04-01T23:12:50.939Z,69.24
2019-04-01T23:15:22.127Z,69.32
2019-04-01T23:17:53.401Z,68.94
2019-04-01T23:20:24.809Z,69.09
2019-04-01T23:22:57.784Z,69.27
2019-04-01T23:25:28.960Z,69.42
2019-04-01T23:28:00.194Z,69.34
2019-04-01T23:30:33.195Z,69.26
2019-04-01T23:33:05.628Z,69.20
2019-04-01T23:35:36.849Z,69.47
2019-04-01T23:38:08.049Z,69.65
2019-04-01T23:40:39.669Z,69.83
2019-04-01T23:43:10.933Z,69.94
2019-04-01T23:45:42.123Z,69.80
2019-04-01T23:48:14.068Z,69.91
2019-04-01T23:50:45.380Z,70.11
2019-04-01T23:53:16.962Z,69.71
2019-04-01T23:55:48.611Z,69.55
2019-04-01T23:58:19.854Z,68.91
